sensor_id;sensor_type;location;lat;lon;timestamp;P1;durP1;ratioP1;P2;durP2;ratioP2
76171;SDS011;64929;51.178;4.138;2024-01-25T00:02:08;27.95;;;5.63;;
76171;SDS011;64929;51.178;4.138;2024-01-25T00:04:34;40.53;;;6.43;;
76171;SDS011;64929;51.178;4.138;2024-01-25T00:06:59;24.70;;;4.78;;
76171;SDS011;64929;51.178;4.138;2024-01-25T00:09:25;39.47;;;6.32;;
76171;SDS011;64929;51.178;4.138;2024-01-25T00:11:51;34.13;;;6.05;;
76171;SDS011;64929;51.178;4.138;2024-01-25T00:14:17;37.33;;;6.10;;
76171;SDS011;64929;51.178;4.138;2024-01-25T00:16:42;40.35;;;5.57;;
76171;SDS011;64929;51.178;4.138;2024-01-25T00:19:08;33.92;;;6.00;;
76171;SDS011;64929;51.178;4.138;2024-01-25T00:21:34;35.40;;;5.43;;
76171;SDS011;64929;51.178;4.138;2024-01-25T00:23:59;34.53;;;6.85;;
76171;SDS011;64929;51.178;4.138;2024-01-25T00:26:25;29.15;;;5.22;;
76171;SDS011;64929;51.178;4.138;2024-01-25T00:28:51;33.45;;;7.05;;
76171;SDS011;64929;51.178;4.138;2024-01-25T00:31:16;36.83;;;7.00;;
76171;SDS011;64929;51.178;4.138;2024-01-25T00:33:42;32.60;;;5.85;;
76171;SDS011;64929;51.178;4.138;2024-01-25T00:36:08;34.70;;;4.32;;
76171;SDS011;64929;51.178;4.138;2024-01-25T00:38:34;42.22;;;6.00;;
76171;SDS011;64929;51.178;4.138;2024-01-25T00:41:00;43.05;;;5.50;;
76171;SDS011;64929;51.178;4.138;2024-01-25T00:43:26;24.63;;;4.53;;
76171;SDS011;64929;51.178;4.138;2024-01-25T00:45:52;35.03;;;5.22;;
76171;SDS011;64929;51.178;4.138;2024-01-25T00:48:18;30.85;;;4.70;;
76171;SDS011;64929;51.178;4.138;2024-01-25T00:50:44;25.77;;;4.82;;
76171;SDS011;64929;51.178;4.138;2024-01-25T00:53:10;36.50;;;5.93;;
76171;SDS011;64929;51.178;4.138;2024-01-25T00:55:36;24.10;;;4.70;;
76171;SDS011;64929;51.178;4.138;2024-01-25T00:58:02;24.95;;;4.45;;
76171;SDS011;64929;51.178;4.138;2024-01-25T01:00:28;34.72;;;5.32;;
76171;SDS011;64929;51.178;4.138;2024-01-25T01:02:54;29.92;;;4.63;;
76171;SDS011;64929;51.178;4.138;2024-01-25T01:05:22;29.55;;;4.65;;
76171;SDS011;64929;51.178;4.138;2024-01-25T01:07:48;30.75;;;4.70;;
76171;SDS011;64929;51.178;4.138;2024-01-25T01:10:14;27.38;;;4.80;;
76171;SDS011;64929;51.178;4.138;2024-01-25T01:12:40;29.80;;;5.07;;
76171;SDS011;64929;51.178;4.138;2024-01-25T01:15:06;27.30;;;3.95;;
76171;SDS011;64929;51.178;4.138;2024-01-25T01:17:32;28.02;;;4.95;;
76171;SDS011;64929;51.178;4.138;2024-01-25T01:19:58;31.92;;;4.53;;
76171;SDS011;64929;51.178;4.138;2024-01-25T01:22:23;29.98;;;4.32;;
76171;SDS011;64929;51.178;4.138;2024-01-25T01:24:49;22.88;;;4.50;;
76171;SDS011;64929;51.178;4.138;2024-01-25T01:27:15;31.30;;;5.40;;
76171;SDS011;64929;51.178;4.138;2024-01-25T01:29:41;28.25;;;4.18;;
76171;SDS011;64929;51.178;4.138;2024-01-25T01:32:07;30.20;;;4.80;;
76171;SDS011;64929;51.178;4.138;2024-01-25T01:34:33;39.22;;;5.13;;
76171;SDS011;64929;51.178;4.138;2024-01-25T01:36:58;36.92;;;5.43;;
76171;SDS011;64929;51.178;4.138;2024-01-25T01:39:24;33.88;;;4.25;;
76171;SDS011;64929;51.178;4.138;2024-01-25T01:41:50;36.97;;;5.78;;
76171;SDS011;64929;51.178;4.138;2024-01-25T01:44:16;33.00;;;5.70;;
76171;SDS011;64929;51.178;4.138;2024-01-25T01:46:41;34.03;;;5.35;;
76171;SDS011;64929;51.178;4.138;2024-01-25T01:49:08;37.50;;;6.45;;
76171;SDS011;64929;51.178;4.138;2024-01-25T01:51:37;27.90;;;5.60;;
76171;SDS011;64929;51.178;4.138;2024-01-25T01:54:05;28.60;;;4.63;;
76171;SDS011;64929;51.178;4.138;2024-01-25T01:56:32;33.28;;;5.78;;
76171;SDS011;64929;51.178;4.138;2024-01-25T01:59:02;28.27;;;5.03;;
76171;SDS011;64929;51.178;4.138;2024-01-25T02:01:30;27.98;;;4.70;;
76171;SDS011;64929;51.178;4.138;2024-01-25T02:03:56;28.80;;;5.10;;
76171;SDS011;64929;51.178;4.138;2024-01-25T02:06:25;30.15;;;5.65;;
76171;SDS011;64929;51.178;4.138;2024-01-25T02:08:51;33.50;;;5.07;;
76171;SDS011;64929;51.178;4.138;2024-01-25T02:11:23;27.25;;;5.40;;
76171;SDS011;64929;51.178;4.138;2024-01-25T02:13:49;30.05;;;5.13;;
76171;SDS011;64929;51.178;4.138;2024-01-25T02:16:15;31.58;;;5.95;;
76171;SDS011;64929;51.178;4.138;2024-01-25T02:18:41;26.25;;;4.85;;
76171;SDS011;64929;51.178;4.138;2024-01-25T02:21:07;32.67;;;5.78;;
76171;SDS011;64929;51.178;4.138;2024-01-25T02:23:33;32.58;;;4.82;;
76171;SDS011;64929;51.178;4.138;2024-01-25T02:25:59;31.13;;;5.75;;
76171;SDS011;64929;51.178;4.138;2024-01-25T02:28:24;26.52;;;5.57;;
76171;SDS011;64929;51.178;4.138;2024-01-25T02:30:50;23.20;;;4.90;;
76171;SDS011;64929;51.178;4.138;2024-01-25T02:33:16;35.45;;;5.32;;
76171;SDS011;64929;51.178;4.138;2024-01-25T02:35:42;32.75;;;5.28;;
76171;SDS011;64929;51.178;4.138;2024-01-25T02:38:07;20.75;;;4.60;;
76171;SDS011;64929;51.178;4.138;2024-01-25T02:40:33;27.83;;;5.10;;
76171;SDS011;64929;51.178;4.138;2024-01-25T02:42:59;33.95;;;5.40;;
76171;SDS011;64929;51.178;4.138;2024-01-25T02:45:24;29.50;;;5.75;;
76171;SDS011;64929;51.178;4.138;2024-01-25T02:47:50;31.20;;;5.65;;
76171;SDS011;64929;51.178;4.138;2024-01-25T02:50:16;37.17;;;5.00;;
76171;SDS011;64929;51.178;4.138;2024-01-25T02:52:42;25.17;;;4.57;;
76171;SDS011;64929;51.178;4.138;2024-01-25T02:55:07;35.25;;;6.22;;
76171;SDS011;64929;51.178;4.138;2024-01-25T02:57:33;31.83;;;6.05;;
76171;SDS011;64929;51.178;4.138;2024-01-25T02:59:59;35.55;;;5.13;;
76171;SDS011;64929;51.178;4.138;2024-01-25T03:02:25;24.42;;;4.80;;
76171;SDS011;64929;51.178;4.138;2024-01-25T03:04:51;23.70;;;4.90;;
76171;SDS011;64929;51.178;4.138;2024-01-25T03:07:17;25.45;;;4.38;;
76171;SDS011;64929;51.178;4.138;2024-01-25T03:09:42;31.15;;;5.85;;
76171;SDS011;64929;51.178;4.138;2024-01-25T03:12:08;25.95;;;5.28;;
76171;SDS011;64929;51.178;4.138;2024-01-25T03:14:34;31.30;;;5.30;;
76171;SDS011;64929;51.178;4.138;2024-01-25T03:17:00;25.20;;;4.07;;
76171;SDS011;64929;51.178;4.138;2024-01-25T03:19:26;30.58;;;6.10;;
76171;SDS011;64929;51.178;4.138;2024-01-25T03:21:52;28.23;;;5.10;;
76171;SDS011;64929;51.178;4.138;2024-01-25T03:24:19;30.63;;;5.20;;
76171;SDS011;64929;51.178;4.138;2024-01-25T03:26:49;30.90;;;4.82;;
76171;SDS011;64929;51.178;4.138;2024-01-25T03:29:14;26.90;;;4.25;;
76171;SDS011;64929;51.178;4.138;2024-01-25T03:31:40;18.50;;;3.28;;
76171;SDS011;64929;51.178;4.138;2024-01-25T03:34:06;27.95;;;4.93;;
76171;SDS011;64929;51.178;4.138;2024-01-25T03:36:32;20.05;;;4.20;;
76171;SDS011;64929;51.178;4.138;2024-01-25T03:38:57;19.67;;;4.47;;
76171;SDS011;64929;51.178;4.138;2024-01-25T03:41:23;25.58;;;4.57;;
76171;SDS011;64929;51.178;4.138;2024-01-25T03:43:49;27.73;;;5.32;;
76171;SDS011;64929;51.178;4.138;2024-01-25T03:46:16;24.05;;;4.47;;
76171;SDS011;64929;51.178;4.138;2024-01-25T03:48:42;19.45;;;4.97;;
76171;SDS011;64929;51.178;4.138;2024-01-25T03:51:08;24.95;;;5.22;;
76171;SDS011;64929;51.178;4.138;2024-01-25T03:53:34;22.17;;;3.92;;
76171;SDS011;64929;51.178;4.138;2024-01-25T03:56:00;24.88;;;4.03;;
76171;SDS011;64929;51.178;4.138;2024-01-25T03:58:25;41.60;;;5.22;;
76171;SDS011;64929;51.178;4.138;2024-01-25T04:00:51;23.80;;;4.55;;
76171;SDS011;64929;51.178;4.138;2024-01-25T04:03:17;25.77;;;4.93;;
76171;SDS011;64929;51.178;4.138;2024-01-25T04:05:43;24.80;;;5.45;;
76171;SDS011;64929;51.178;4.138;2024-01-25T04:08:08;28.73;;;5.57;;
76171;SDS011;64929;51.178;4.138;2024-01-25T04:10:35;37.75;;;5.68;;
76171;SDS011;64929;51.178;4.138;2024-01-25T04:13:00;32.20;;;5.90;;
76171;SDS011;64929;51.178;4.138;2024-01-25T04:15:27;25.48;;;4.53;;
76171;SDS011;64929;51.178;4.138;2024-01-25T04:17:53;26.65;;;5.10;;
76171;SDS011;64929;51.178;4.138;2024-01-25T04:20:18;23.23;;;5.18;;
76171;SDS011;64929;51.178;4.138;2024-01-25T04:22:44;31.23;;;4.40;;
76171;SDS011;64929;51.178;4.138;2024-01-25T04:25:10;28.85;;;4.35;;
76171;SDS011;64929;51.178;4.138;2024-01-25T04:27:39;15.63;;;3.20;;
76171;SDS011;64929;51.178;4.138;2024-01-25T04:30:06;24.13;;;4.05;;
76171;SDS011;64929;51.178;4.138;2024-01-25T04:32:32;37.05;;;5.50;;
76171;SDS011;64929;51.178;4.138;2024-01-25T04:34:58;29.63;;;5.57;;
76171;SDS011;64929;51.178;4.138;2024-01-25T04:37:24;28.30;;;4.72;;
76171;SDS011;64929;51.178;4.138;2024-01-25T04:39:50;42.50;;;5.63;;
76171;SDS011;64929;51.178;4.138;2024-01-25T04:42:15;29.45;;;4.85;;
76171;SDS011;64929;51.178;4.138;2024-01-25T04:44:41;29.55;;;4.55;;
76171;SDS011;64929;51.178;4.138;2024-01-25T04:47:07;30.45;;;5.68;;
76171;SDS011;64929;51.178;4.138;2024-01-25T04:49:33;40.63;;;5.60;;
76171;SDS011;64929;51.178;4.138;2024-01-25T04:51:59;28.67;;;5.03;;
76171;SDS011;64929;51.178;4.138;2024-01-25T04:54:25;31.30;;;5.47;;
76171;SDS011;64929;51.178;4.138;2024-01-25T04:56:51;25.65;;;4.72;;
76171;SDS011;64929;51.178;4.138;2024-01-25T04:59:16;31.30;;;5.22;;
76171;SDS011;64929;51.178;4.138;2024-01-25T05:01:42;37.28;;;5.90;;
76171;SDS011;64929;51.178;4.138;2024-01-25T05:04:08;28.05;;;4.82;;
76171;SDS011;64929;51.178;4.138;2024-01-25T05:06:33;26.52;;;5.13;;
76171;SDS011;64929;51.178;4.138;2024-01-25T05:08:59;32.95;;;4.63;;
76171;SDS011;64929;51.178;4.138;2024-01-25T05:11:25;29.58;;;5.53;;
76171;SDS011;64929;51.178;4.138;2024-01-25T05:13:51;28.75;;;4.80;;
76171;SDS011;64929;51.178;4.138;2024-01-25T05:16:16;24.08;;;4.10;;
76171;SDS011;64929;51.178;4.138;2024-01-25T05:18:42;26.85;;;4.28;;
76171;SDS011;64929;51.178;4.138;2024-01-25T05:21:08;32.25;;;5.65;;
76171;SDS011;64929;51.178;4.138;2024-01-25T05:23:33;33.33;;;5.45;;
76171;SDS011;64929;51.178;4.138;2024-01-25T05:25:59;38.03;;;6.57;;
76171;SDS011;64929;51.178;4.138;2024-01-25T05:28:26;32.00;;;4.80;;
76171;SDS011;64929;51.178;4.138;2024-01-25T05:30:52;32.35;;;5.85;;
76171;SDS011;64929;51.178;4.138;2024-01-25T05:33:18;32.95;;;5.63;;
76171;SDS011;64929;51.178;4.138;2024-01-25T05:35:43;29.38;;;6.35;;
76171;SDS011;64929;51.178;4.138;2024-01-25T05:38:09;36.38;;;5.60;;
76171;SDS011;64929;51.178;4.138;2024-01-25T05:40:35;32.60;;;6.07;;
76171;SDS011;64929;51.178;4.138;2024-01-25T05:43:00;30.95;;;5.28;;
76171;SDS011;64929;51.178;4.138;2024-01-25T05:45:26;33.00;;;5.65;;
76171;SDS011;64929;51.178;4.138;2024-01-25T05:47:52;32.92;;;6.43;;
76171;SDS011;64929;51.178;4.138;2024-01-25T05:50:17;27.05;;;5.95;;
76171;SDS011;64929;51.178;4.138;2024-01-25T05:52:44;36.88;;;6.40;;
76171;SDS011;64929;51.178;4.138;2024-01-25T05:55:09;39.33;;;6.50;;
76171;SDS011;64929;51.178;4.138;2024-01-25T05:57:36;38.10;;;6.65;;
76171;SDS011;64929;51.178;4.138;2024-01-25T06:00:05;37.95;;;7.05;;
76171;SDS011;64929;51.178;4.138;2024-01-25T06:02:31;26.95;;;7.60;;
76171;SDS011;64929;51.178;4.138;2024-01-25T06:04:56;33.40;;;8.35;;
76171;SDS011;64929;51.178;4.138;2024-01-25T06:07:24;33.60;;;8.05;;
76171;SDS011;64929;51.178;4.138;2024-01-25T06:09:50;38.90;;;6.72;;
76171;SDS011;64929;51.178;4.138;2024-01-25T06:12:16;34.22;;;7.90;;
76171;SDS011;64929;51.178;4.138;2024-01-25T06:14:42;44.53;;;7.80;;
76171;SDS011;64929;51.178;4.138;2024-01-25T06:17:08;35.92;;;6.53;;
76171;SDS011;64929;51.178;4.138;2024-01-25T06:19:33;35.75;;;7.20;;
76171;SDS011;64929;51.178;4.138;2024-01-25T06:21:59;33.20;;;5.72;;
76171;SDS011;64929;51.178;4.138;2024-01-25T06:24:25;31.88;;;6.68;;
76171;SDS011;64929;51.178;4.138;2024-01-25T06:26:52;43.72;;;6.57;;
76171;SDS011;64929;51.178;4.138;2024-01-25T06:29:18;36.90;;;6.30;;
76171;SDS011;64929;51.178;4.138;2024-01-25T06:31:44;44.17;;;7.72;;
76171;SDS011;64929;51.178;4.138;2024-01-25T06:34:10;40.40;;;7.13;;
76171;SDS011;64929;51.178;4.138;2024-01-25T06:36:36;46.53;;;7.53;;
76171;SDS011;64929;51.178;4.138;2024-01-25T06:39:02;33.08;;;6.47;;
76171;SDS011;64929;51.178;4.138;2024-01-25T06:41:31;34.70;;;7.82;;
76171;SDS011;64929;51.178;4.138;2024-01-25T06:43:57;29.67;;;5.78;;
76171;SDS011;64929;51.178;4.138;2024-01-25T06:46:23;49.47;;;7.68;;
76171;SDS011;64929;51.178;4.138;2024-01-25T06:48:50;41.33;;;8.48;;
76171;SDS011;64929;51.178;4.138;2024-01-25T06:51:16;47.33;;;8.85;;
76171;SDS011;64929;51.178;4.138;2024-01-25T06:53:42;37.47;;;5.65;;
76171;SDS011;64929;51.178;4.138;2024-01-25T06:56:07;32.85;;;5.63;;
76171;SDS011;64929;51.178;4.138;2024-01-25T06:58:33;39.80;;;8.90;;
76171;SDS011;64929;51.178;4.138;2024-01-25T07:00:59;34.88;;;6.40;;
76171;SDS011;64929;51.178;4.138;2024-01-25T07:03:25;42.72;;;7.18;;
76171;SDS011;64929;51.178;4.138;2024-01-25T07:05:50;38.05;;;6.75;;
76171;SDS011;64929;51.178;4.138;2024-01-25T07:08:16;30.20;;;5.80;;
76171;SDS011;64929;51.178;4.138;2024-01-25T07:10:42;38.35;;;6.47;;
76171;SDS011;64929;51.178;4.138;2024-01-25T07:13:09;45.78;;;6.55;;
76171;SDS011;64929;51.178;4.138;2024-01-25T07:15:34;40.28;;;6.57;;
76171;SDS011;64929;51.178;4.138;2024-01-25T07:18:00;38.20;;;9.30;;
76171;SDS011;64929;51.178;4.138;2024-01-25T07:20:26;38.88;;;8.57;;
76171;SDS011;64929;51.178;4.138;2024-01-25T07:22:52;35.65;;;7.63;;
76171;SDS011;64929;51.178;4.138;2024-01-25T07:25:18;51.30;;;13.18;;
76171;SDS011;64929;51.178;4.138;2024-01-25T07:27:44;57.90;;;16.30;;
76171;SDS011;64929;51.178;4.138;2024-01-25T07:30:11;61.33;;;17.98;;
76171;SDS011;64929;51.178;4.138;2024-01-25T07:32:40;66.32;;;21.27;;
76171;SDS011;64929;51.178;4.138;2024-01-25T07:35:07;77.80;;;24.65;;
76171;SDS011;64929;51.178;4.138;2024-01-25T07:37:37;28.92;;;8.30;;
76171;SDS011;64929;51.178;4.138;2024-01-25T07:40:04;42.88;;;6.32;;
76171;SDS011;64929;51.178;4.138;2024-01-25T07:42:30;42.22;;;6.93;;
76171;SDS011;64929;51.178;4.138;2024-01-25T07:44:56;37.38;;;7.07;;
76171;SDS011;64929;51.178;4.138;2024-01-25T07:47:22;36.08;;;8.10;;
76171;SDS011;64929;51.178;4.138;2024-01-25T07:49:48;41.55;;;7.55;;
76171;SDS011;64929;51.178;4.138;2024-01-25T07:52:13;62.33;;;19.02;;
76171;SDS011;64929;51.178;4.138;2024-01-25T07:54:39;64.70;;;21.50;;
76171;SDS011;64929;51.178;4.138;2024-01-25T07:57:05;67.22;;;17.42;;
76171;SDS011;64929;51.178;4.138;2024-01-25T07:59:31;39.53;;;9.27;;
76171;SDS011;64929;51.178;4.138;2024-01-25T08:01:56;34.90;;;6.57;;
76171;SDS011;64929;51.178;4.138;2024-01-25T08:04:22;39.97;;;6.97;;
76171;SDS011;64929;51.178;4.138;2024-01-25T08:06:48;21.08;;;6.95;;
76171;SDS011;64929;51.178;4.138;2024-01-25T08:09:13;33.30;;;10.18;;
76171;SDS011;64929;51.178;4.138;2024-01-25T08:11:39;43.15;;;9.20;;
76171;SDS011;64929;51.178;4.138;2024-01-25T08:14:05;39.42;;;7.18;;
76171;SDS011;64929;51.178;4.138;2024-01-25T08:16:31;37.92;;;6.28;;
76171;SDS011;64929;51.178;4.138;2024-01-25T08:18:56;41.78;;;8.57;;
76171;SDS011;64929;51.178;4.138;2024-01-25T08:21:23;42.95;;;11.18;;
76171;SDS011;64929;51.178;4.138;2024-01-25T08:23:49;44.97;;;10.57;;
76171;SDS011;64929;51.178;4.138;2024-01-25T08:26:15;37.42;;;8.15;;
76171;SDS011;64929;51.178;4.138;2024-01-25T08:28:41;32.35;;;10.00;;
76171;SDS011;64929;51.178;4.138;2024-01-25T08:31:11;42.42;;;8.70;;
76171;SDS011;64929;51.178;4.138;2024-01-25T08:33:38;42.17;;;10.60;;
76171;SDS011;64929;51.178;4.138;2024-01-25T08:36:09;33.13;;;8.43;;
76171;SDS011;64929;51.178;4.138;2024-01-25T08:38:36;33.78;;;8.95;;
76171;SDS011;64929;51.178;4.138;2024-01-25T08:41:02;42.95;;;9.18;;
76171;SDS011;64929;51.178;4.138;2024-01-25T08:43:27;30.65;;;11.50;;
76171;SDS011;64929;51.178;4.138;2024-01-25T08:45:53;38.22;;;10.93;;
76171;SDS011;64929;51.178;4.138;2024-01-25T08:48:19;35.15;;;10.93;;
76171;SDS011;64929;51.178;4.138;2024-01-25T08:50:45;49.22;;;11.65;;
76171;SDS011;64929;51.178;4.138;2024-01-25T08:53:11;43.47;;;10.77;;
76171;SDS011;64929;51.178;4.138;2024-01-25T08:55:37;41.90;;;10.23;;
76171;SDS011;64929;51.178;4.138;2024-01-25T08:58:03;46.80;;;11.50;;
76171;SDS011;64929;51.178;4.138;2024-01-25T09:00:28;51.28;;;11.30;;
76171;SDS011;64929;51.178;4.138;2024-01-25T09:02:54;45.72;;;13.18;;
76171;SDS011;64929;51.178;4.138;2024-01-25T09:05:20;43.10;;;11.32;;
76171;SDS011;64929;51.178;4.138;2024-01-25T09:07:45;43.65;;;12.07;;
76171;SDS011;64929;51.178;4.138;2024-01-25T09:10:12;36.40;;;10.80;;
76171;SDS011;64929;51.178;4.138;2024-01-25T09:12:38;34.28;;;10.18;;
76171;SDS011;64929;51.178;4.138;2024-01-25T09:15:06;34.53;;;9.68;;
76171;SDS011;64929;51.178;4.138;2024-01-25T09:17:33;31.02;;;9.55;;
76171;SDS011;64929;51.178;4.138;2024-01-25T09:19:59;31.83;;;10.25;;
76171;SDS011;64929;51.178;4.138;2024-01-25T09:22:25;31.50;;;9.82;;
76171;SDS011;64929;51.178;4.138;2024-01-25T09:24:50;30.83;;;9.63;;
76171;SDS011;64929;51.178;4.138;2024-01-25T09:27:16;29.25;;;9.32;;
76171;SDS011;64929;51.178;4.138;2024-01-25T09:29:42;30.70;;;9.73;;
76171;SDS011;64929;51.178;4.138;2024-01-25T09:32:08;23.25;;;10.13;;
76171;SDS011;64929;51.178;4.138;2024-01-25T09:34:38;29.75;;;9.35;;
76171;SDS011;64929;51.178;4.138;2024-01-25T09:37:04;26.40;;;9.93;;
76171;SDS011;64929;51.178;4.138;2024-01-25T09:39:31;25.15;;;9.75;;
76171;SDS011;64929;51.178;4.138;2024-01-25T09:41:56;30.70;;;11.05;;
76171;SDS011;64929;51.178;4.138;2024-01-25T09:44:22;29.27;;;10.73;;
76171;SDS011;64929;51.178;4.138;2024-01-25T09:46:48;27.00;;;9.95;;
76171;SDS011;64929;51.178;4.138;2024-01-25T09:49:16;33.95;;;11.90;;
76171;SDS011;64929;51.178;4.138;2024-01-25T09:51:42;27.05;;;9.82;;
76171;SDS011;64929;51.178;4.138;2024-01-25T09:54:08;33.42;;;10.88;;
76171;SDS011;64929;51.178;4.138;2024-01-25T09:56:35;29.30;;;10.68;;
76171;SDS011;64929;51.178;4.138;2024-01-25T09:59:01;31.40;;;10.63;;
76171;SDS011;64929;51.178;4.138;2024-01-25T10:01:27;30.42;;;10.52;;
76171;SDS011;64929;51.178;4.138;2024-01-25T10:03:53;35.58;;;11.27;;
76171;SDS011;64929;51.178;4.138;2024-01-25T10:06:22;34.13;;;11.75;;
76171;SDS011;64929;51.178;4.138;2024-01-25T10:08:48;27.20;;;10.52;;
76171;SDS011;64929;51.178;4.138;2024-01-25T10:11:14;40.40;;;13.13;;
76171;SDS011;64929;51.178;4.138;2024-01-25T10:13:43;41.90;;;14.95;;
76171;SDS011;64929;51.178;4.138;2024-01-25T10:16:12;53.50;;;20.30;;
76171;SDS011;64929;51.178;4.138;2024-01-25T10:21:06;41.05;;;14.38;;
76171;SDS011;64929;51.178;4.138;2024-01-25T10:23:32;44.38;;;15.82;;
76171;SDS011;64929;51.178;4.138;2024-01-25T10:25:57;42.35;;;13.93;;
76171;SDS011;64929;51.178;4.138;2024-01-25T10:28:24;37.08;;;12.75;;
76171;SDS011;64929;51.178;4.138;2024-01-25T10:30:50;26.00;;;10.35;;
76171;SDS011;64929;51.178;4.138;2024-01-25T10:33:16;31.63;;;11.75;;
76171;SDS011;64929;51.178;4.138;2024-01-25T10:35:43;29.50;;;10.82;;
76171;SDS011;64929;51.178;4.138;2024-01-25T10:38:15;28.20;;;10.80;;
76171;SDS011;64929;51.178;4.138;2024-01-25T10:40:42;26.02;;;11.32;;
76171;SDS011;64929;51.178;4.138;2024-01-25T10:43:09;27.85;;;11.23;;
76171;SDS011;64929;51.178;4.138;2024-01-25T10:45:35;29.35;;;10.85;;
76171;SDS011;64929;51.178;4.138;2024-01-25T10:48:00;27.17;;;10.25;;
76171;SDS011;64929;51.178;4.138;2024-01-25T10:50:27;29.60;;;11.63;;
76171;SDS011;64929;51.178;4.138;2024-01-25T10:52:52;27.88;;;10.85;;
76171;SDS011;64929;51.178;4.138;2024-01-25T10:55:19;32.92;;;12.30;;
76171;SDS011;64929;51.178;4.138;2024-01-25T10:57:45;26.30;;;11.20;;
76171;SDS011;64929;51.178;4.138;2024-01-25T11:00:12;28.23;;;11.35;;
76171;SDS011;64929;51.178;4.138;2024-01-25T11:02:40;35.60;;;16.33;;
76171;SDS011;64929;51.178;4.138;2024-01-25T11:05:11;33.22;;;13.32;;
76171;SDS011;64929;51.178;4.138;2024-01-25T11:07:40;37.47;;;13.45;;
76171;SDS011;64929;51.178;4.138;2024-01-25T11:10:10;42.10;;;19.58;;
76171;SDS011;64929;51.178;4.138;2024-01-25T11:12:50;44.88;;;16.88;;
76171;SDS011;64929;51.178;4.138;2024-01-25T11:15:23;38.17;;;14.40;;
76171;SDS011;64929;51.178;4.138;2024-01-25T11:18:00;42.33;;;15.30;;
76171;SDS011;64929;51.178;4.138;2024-01-25T11:20:31;43.97;;;14.82;;
76171;SDS011;64929;51.178;4.138;2024-01-25T11:22:59;40.10;;;14.95;;
76171;SDS011;64929;51.178;4.138;2024-01-25T11:25:36;51.35;;;17.30;;
76171;SDS011;64929;51.178;4.138;2024-01-25T11:28:03;51.55;;;17.48;;
76171;SDS011;64929;51.178;4.138;2024-01-25T11:30:31;55.70;;;19.85;;
76171;SDS011;64929;51.178;4.138;2024-01-25T11:32:58;51.60;;;18.05;;
76171;SDS011;64929;51.178;4.138;2024-01-25T11:35:24;42.20;;;14.73;;
76171;SDS011;64929;51.178;4.138;2024-01-25T11:37:50;57.08;;;20.92;;
76171;SDS011;64929;51.178;4.138;2024-01-25T11:40:18;52.25;;;17.38;;
76171;SDS011;64929;51.178;4.138;2024-01-25T11:42:47;46.00;;;16.10;;
76171;SDS011;64929;51.178;4.138;2024-01-25T11:45:14;68.03;;;25.23;;
76171;SDS011;64929;51.178;4.138;2024-01-25T11:47:40;47.95;;;15.73;;
76171;SDS011;64929;51.178;4.138;2024-01-25T11:50:08;42.45;;;16.45;;
76171;SDS011;64929;51.178;4.138;2024-01-25T11:52:36;42.75;;;15.02;;
76171;SDS011;64929;51.178;4.138;2024-01-25T11:55:02;40.70;;;13.73;;
76171;SDS011;64929;51.178;4.138;2024-01-25T11:57:30;70.50;;;23.48;;
76171;SDS011;64929;51.178;4.138;2024-01-25T12:00:00;52.85;;;17.90;;
76171;SDS011;64929;51.178;4.138;2024-01-25T12:02:27;43.45;;;14.52;;
76171;SDS011;64929;51.178;4.138;2024-01-25T12:04:53;43.50;;;13.93;;
76171;SDS011;64929;51.178;4.138;2024-01-25T12:07:21;37.33;;;14.00;;
76171;SDS011;64929;51.178;4.138;2024-01-25T12:10:01;59.95;;;17.33;;
76171;SDS011;64929;51.178;4.138;2024-01-25T12:12:27;47.33;;;17.30;;
76171;SDS011;64929;51.178;4.138;2024-01-25T12:14:59;38.17;;;11.45;;
76171;SDS011;64929;51.178;4.138;2024-01-25T12:17:26;54.65;;;15.90;;
76171;SDS011;64929;51.178;4.138;2024-01-25T12:19:59;33.72;;;11.70;;
76171;SDS011;64929;51.178;4.138;2024-01-25T12:22:29;34.47;;;11.07;;
76171;SDS011;64929;51.178;4.138;2024-01-25T12:24:57;40.95;;;10.68;;
76171;SDS011;64929;51.178;4.138;2024-01-25T12:27:24;33.55;;;10.90;;
76171;SDS011;64929;51.178;4.138;2024-01-25T12:29:50;34.22;;;10.70;;
76171;SDS011;64929;51.178;4.138;2024-01-25T12:32:18;38.10;;;10.55;;
76171;SDS011;64929;51.178;4.138;2024-01-25T12:37:20;30.33;;;9.90;;
76171;SDS011;64929;51.178;4.138;2024-01-25T12:39:46;29.60;;;10.45;;
76171;SDS011;64929;51.178;4.138;2024-01-25T12:42:11;33.03;;;9.30;;
76171;SDS011;64929;51.178;4.138;2024-01-25T12:44:38;27.13;;;9.02;;
76171;SDS011;64929;51.178;4.138;2024-01-25T12:47:04;26.70;;;8.82;;
76171;SDS011;64929;51.178;4.138;2024-01-25T12:49:32;36.80;;;9.27;;
76171;SDS011;64929;51.178;4.138;2024-01-25T12:51:58;23.88;;;8.20;;
76171;SDS011;64929;51.178;4.138;2024-01-25T12:54:24;27.05;;;7.95;;
76171;SDS011;64929;51.178;4.138;2024-01-25T12:56:50;16.40;;;7.05;;
76171;SDS011;64929;51.178;4.138;2024-01-25T12:59:16;22.23;;;7.78;;
76171;SDS011;64929;51.178;4.138;2024-01-25T13:01:42;18.48;;;7.47;;
76171;SDS011;64929;51.178;4.138;2024-01-25T13:04:07;20.35;;;7.93;;
76171;SDS011;64929;51.178;4.138;2024-01-25T13:06:33;22.40;;;7.47;;
76171;SDS011;64929;51.178;4.138;2024-01-25T13:08:59;25.85;;;6.97;;
76171;SDS011;64929;51.178;4.138;2024-01-25T13:11:25;25.77;;;8.43;;
76171;SDS011;64929;51.178;4.138;2024-01-25T13:13:50;25.50;;;7.35;;
76171;SDS011;64929;51.178;4.138;2024-01-25T13:16:17;19.85;;;7.10;;
76171;SDS011;64929;51.178;4.138;2024-01-25T13:18:43;20.77;;;7.93;;
76171;SDS011;64929;51.178;4.138;2024-01-25T13:21:08;21.40;;;7.15;;
76171;SDS011;64929;51.178;4.138;2024-01-25T13:23:34;15.75;;;6.40;;
76171;SDS011;64929;51.178;4.138;2024-01-25T13:26:00;13.77;;;6.00;;
76171;SDS011;64929;51.178;4.138;2024-01-25T13:28:26;22.75;;;7.97;;
76171;SDS011;64929;51.178;4.138;2024-01-25T13:30:52;17.63;;;6.90;;
76171;SDS011;64929;51.178;4.138;2024-01-25T13:33:19;17.27;;;5.95;;
76171;SDS011;64929;51.178;4.138;2024-01-25T13:35:44;12.68;;;6.13;;
76171;SDS011;64929;51.178;4.138;2024-01-25T13:38:10;15.35;;;5.97;;
76171;SDS011;64929;51.178;4.138;2024-01-25T13:40:39;15.88;;;6.63;;
76171;SDS011;64929;51.178;4.138;2024-01-25T13:43:06;14.50;;;5.93;;
76171;SDS011;64929;51.178;4.138;2024-01-25T13:45:31;20.77;;;6.88;;
76171;SDS011;64929;51.178;4.138;2024-01-25T13:47:57;18.30;;;7.05;;
76171;SDS011;64929;51.178;4.138;2024-01-25T13:50:23;12.77;;;6.05;;
76171;SDS011;64929;51.178;4.138;2024-01-25T13:52:51;14.05;;;6.45;;
76171;SDS011;64929;51.178;4.138;2024-01-25T13:55:16;10.75;;;6.65;;
76171;SDS011;64929;51.178;4.138;2024-01-25T13:57:42;14.48;;;5.97;;
76171;SDS011;64929;51.178;4.138;2024-01-25T14:00:08;16.67;;;6.25;;
76171;SDS011;64929;51.178;4.138;2024-01-25T14:02:35;14.63;;;6.78;;
76171;SDS011;64929;51.178;4.138;2024-01-25T14:05:01;14.60;;;6.35;;
76171;SDS011;64929;51.178;4.138;2024-01-25T14:07:27;11.02;;;6.43;;
76171;SDS011;64929;51.178;4.138;2024-01-25T14:09:53;12.93;;;6.60;;
76171;SDS011;64929;51.178;4.138;2024-01-25T14:12:19;9.55;;;6.93;;
76171;SDS011;64929;51.178;4.138;2024-01-25T14:14:44;9.63;;;6.68;;
76171;SDS011;64929;51.178;4.138;2024-01-25T14:17:10;10.52;;;6.45;;
76171;SDS011;64929;51.178;4.138;2024-01-25T14:19:36;11.15;;;7.25;;
76171;SDS011;64929;51.178;4.138;2024-01-25T14:22:02;11.90;;;7.80;;
76171;SDS011;64929;51.178;4.138;2024-01-25T14:24:28;14.07;;;7.30;;
76171;SDS011;64929;51.178;4.138;2024-01-25T14:26:53;13.45;;;7.18;;
76171;SDS011;64929;51.178;4.138;2024-01-25T14:29:19;14.02;;;7.85;;
76171;SDS011;64929;51.178;4.138;2024-01-25T14:31:45;12.48;;;7.18;;